Map

Track Data

SID SEASON NUMBER BASIN SUBBASIN NAME ISO_TIME NATURE LAT LON WMO_WIND WMO_PRES WMO_AGENCY TRACK_TYPE DIST2LAND LANDFALL IFLAG USA_AGENCY USA_ATCF_ID USA_LAT USA_LON USA_RECORD USA_STATUS USA_WIND USA_PRES USA_SSHS USA_R34_NE USA_R34_SE USA_R34_SW USA_R34_NW USA_R50_NE USA_R50_SE USA_R50_SW USA_R50_NW USA_R64_NE USA_R64_SE USA_R64_SW USA_R64_NW USA_POCI USA_ROCI USA_RMW USA_EYE TOKYO_LAT TOKYO_LON TOKYO_GRADE TOKYO_WIND TOKYO_PRES TOKYO_R50_DIR TOKYO_R50_LONG TOKYO_R50_SHORT TOKYO_R30_DIR TOKYO_R30_LONG TOKYO_R30_SHORT TOKYO_LAND CMA_LAT CMA_LON CMA_CAT CMA_WIND CMA_PRES HKO_LAT HKO_LON HKO_CAT HKO_WIND HKO_PRES NEWDELHI_LAT NEWDELHI_LON NEWDELHI_GRADE NEWDELHI_WIND NEWDELHI_PRES NEWDELHI_CI NEWDELHI_DP NEWDELHI_POCI REUNION_LAT REUNION_LON REUNION_TYPE REUNION_WIND REUNION_PRES REUNION_TNUM REUNION_CI REUNION_RMW REUNION_R34_NE REUNION_R34_SE REUNION_R34_SW REUNION_R34_NW REUNION_R50_NE REUNION_R50_SE REUNION_R50_SW REUNION_R50_NW REUNION_R64_NE REUNION_R64_SE REUNION_R64_SW REUNION_R64_NW BOM_LAT BOM_LON BOM_TYPE BOM_WIND BOM_PRES BOM_TNUM BOM_CI BOM_RMW BOM_R34_NE BOM_R34_SE BOM_R34_SW BOM_R34_NW BOM_R50_NE BOM_R50_SE BOM_R50_SW BOM_R50_NW BOM_R64_NE BOM_R64_SE BOM_R64_SW BOM_R64_NW BOM_ROCI BOM_POCI BOM_EYE BOM_POS_METHOD BOM_PRES_METHOD NADI_LAT NADI_LON NADI_CAT NADI_WIND NADI_PRES WELLINGTON_LAT WELLINGTON_LON WELLINGTON_WIND WELLINGTON_PRES DS824_LAT DS824_LON DS824_STAGE DS824_WIND DS824_PRES TD9636_LAT TD9636_LON TD9636_STAGE TD9636_WIND TD9636_PRES TD9635_LAT TD9635_LON TD9635_WIND TD9635_PRES TD9635_ROCI NEUMANN_LAT NEUMANN_LON NEUMANN_CLASS NEUMANN_WIND NEUMANN_PRES MLC_LAT MLC_LON MLC_CLASS MLC_WIND MLC_PRES USA_GUST BOM_GUST BOM_GUST_PER REUNION_GUST REUNION_GUST_PER USA_SEAHGT USA_SEARAD_NE USA_SEARAD_SE USA_SEARAD_SW USA_SEARAD_NW STORM_SPEED STORM_DIR
1977010N10127 1977 3 WP MM NOT_NAMED 1977-01-10 00:00:00 TS 10.0000 126.500 main 78 78 __O___________ -1 10.0000 126.500 1 23 1005 11 345
1977010N10127 1977 3 WP MM NOT_NAMED 1977-01-10 03:00:00 TS 10.5075 126.368 main 86 45 __P___________ -1 10.5075 126.368 1 23 1005 10 342
1977010N10127 1977 3 WP MM NOT_NAMED 1977-01-10 06:00:00 TS 10.9000 126.200 main 45 24 __O___________ -1 10.9000 126.200 1 23 1005 7 327
1977010N10127 1977 3 WP MM NOT_NAMED 1977-01-10 09:00:00 TS 11.1150 125.972 main 24 15 __P___________ -1 11.1150 125.972 1 23 1005 6 309
1977010N10127 1977 3 WP MM NOT_NAMED 1977-01-10 12:00:00 TS 11.3000 125.700 main 15 0 __O___________ -1 11.3000 125.700 1 23 1005 8 310
1977010N10127 1977 3 WP MM NOT_NAMED 1977-01-10 15:00:00 TS 11.6051 125.378 main 0 0 __P___________ -1 11.6051 125.378 1 23 1005 9 320
1977010N10127 1977 3 WP MM NOT_NAMED 1977-01-10 18:00:00 TS 12.0000 125.100 main 0 0 __O___________ -1 12.0000 125.100 1 23 1005 10 335
1977010N10127 1977 3 WP MM NOT_NAMED 1977-01-10 21:00:00 TS 12.4774 124.970 main 0 0 __P___________ -1 12.4774 124.970 1 23 1005 10 349
1977010N10127 1977 3 WP MM NOT_NAMED 1977-01-11 00:00:00 TS 13.0000 124.900 main 55 48 __O___________ -1 13.0000 124.900 1 23 1005 11 350
1977010N10127 1977 3 WP MM NOT_NAMED 1977-01-11 03:00:00 TS 13.5450 124.778 main 48 32 __P___________ -1 13.5450 124.778 1 26 1003 10 349
1977010N10127 1977 3 WP MM NOT_NAMED 1977-01-11 06:00:00 TS 14.0000 124.700 main 34 34 __O___________ -1 14.0000 124.700 1 29 1002 7 357
1977010N10127 1977 3 WP MM NOT_NAMED 1977-01-11 09:00:00 TS 14.2450 124.735 main 46 46 __P___________ -1 14.2450 124.735 1 29 1002 4 13
1977010N10127 1977 3 WP MM NOT_NAMED 1977-01-11 12:00:00 TS 14.4000 124.800 main 70 70 __O___________ -1 14.4000 124.800 1 29 1002 3 12
1977010N10127 1977 3 WP MM NOT_NAMED 1977-01-11 15:00:00 TS 14.5850 124.800 main 86 86 __P___________ -1 14.5850 124.800 1 29 1002 4 0
1977010N10127 1977 3 WP MM NOT_NAMED 1977-01-11 18:00:00 TS 14.8000 124.800 main 104 104 __O___________ -1 14.8000 124.800 1 29 1002 5 5
1977010N10127 1977 3 WP MM NOT_NAMED 1977-01-11 21:00:00 TS 15.0925 124.842 main 134 134 __P___________ -1 15.0925 124.842 1 29 1002 6 9
1977010N10127 1977 3 WP MM NOT_NAMED 1977-01-12 00:00:00 TS 15.4000 124.900 main 169 169 __O___________ -1 15.4000 124.900 1 29 1002 6 10
1977010N10127 1977 3 WP MM NOT_NAMED 1977-01-12 03:00:00 TS 15.6725 124.950 main 204 204 __P___________ -1 15.6725 124.950 1 29 1002 5 11
1977010N10127 1977 3 WP MM NOT_NAMED 1977-01-12 06:00:00 TS 15.9000 125.000 main 225 225 __O___________ -1 15.9000 125.000 1 29 1002 4 11
1977010N10127 1977 3 WP MM NOT_NAMED 1977-01-12 09:00:00 TS 16.0425 125.035 main 236 236 __P___________ -1 16.0425 125.035 1 26 1003 3 17
1977010N10127 1977 3 WP MM NOT_NAMED 1977-01-12 12:00:00 TS 16.2000 125.100 main 260 260 __O___________ -1 16.2000 125.100 1 23 1005 5 18
1977010N10127 1977 3 WP MM NOT_NAMED 1977-01-12 15:00:00 TS 16.5148 125.190 main 291 289 __P___________ -1 16.5148 125.190 1 23 1005 7 26
1977010N10127 1977 3 WP MM NOT_NAMED 1977-01-12 18:00:00 TS 16.8000 125.400 main 308 308 __O___________ -1 16.8000 125.400 1 23 1005 7 56
1977010N10127 1977 3 WP MM NOT_NAMED 1977-01-12 21:00:00 TS 16.9252 125.820 main 351 351 __P___________ -1 16.9252 125.820 1 23 1005 9 83
1977010N10127 1977 3 WP MM NOT_NAMED 1977-01-13 00:00:00 TS 16.9000 126.300 main 389 389 __O___________ -1 16.9000 126.300 1 23 1005 8 103
1977010N10127 1977 3 WP MM NOT_NAMED 1977-01-13 03:00:00 TS 16.7447 126.643 main 390 390 __P___________ -1 16.7447 126.643 1 21 1005 8 121
1977010N10127 1977 3 WP MM NOT_NAMED 1977-01-13 06:00:00 TS 16.5000 127.000 main 402 402 __O___________ -1 16.5000 127.000 0 19 1005 9 122
1977010N10127 1977 3 WP MM NOT_NAMED 1977-01-13 09:00:00 TS 16.2479 127.465 main 420 420 __P___________ -1 16.2479 127.465 0 1006 11 118
1977010N10127 1977 3 WP MM NOT_NAMED 1977-01-13 12:00:00 TS 16.0000 128.000 main 452 __O___________ -1 16.0000 128.000 0 1008 11 116

Digital Typhoon Data and Search

About IBTrACS Database

This database is a web-friendly format of International Best Track Archive for Climate Stewardship (IBTrACS), a global best track data archive curated by NOAA dating back to 1842.

Updated: 2021-11-26